Hlavní strana
METAR-TAF:

METAR-TAF

Letiště :

Letiště Vitebsk

Vitebsk, Bělorusko

zeměpisná šířka: 55-10N, zeměpisná délka: 030-13E, výška: 176 m

Aktuální stav počasí

Zpráva byla vytvořena před 11 hodinami a 22 minutami, v 16:00 UTC
Západojihozápadní vítr 10 kt
Teplota 7°C
Vlhkost vzduchu 49%
Tlak 1021 hPa
Viditelnost 10 km a více
Žádná oblačnost pod 1500 m, nevyskytují se cumulonimby.

METAR: UMII 231600Z 24005MPS CAVOK 07/M03 Q1021 R23/D NOSIG

Čas: 06:22 (03:22 UTC)

Předpověď počasí

Zpráva byla vytvořena před 13 hodinami a 17 minutami, v 14:05 UTC
Předpověď platná od 23 v 15 UTC do 23 v 24 UTC
Jihozápadní vítr 6 kt
Viditelnost 10 km a více
Polojasno ve výšce 2000 ft
Dočasný
od 23 v 16 UTC do 23 v 24 UTC
Viditelnost: 2000 m
Polojasno ve výšce 500 ft
kouřmo

TAF: UMII 231405Z 2315/2324 23003MPS 9999 SCT020 TEMPO 2316/2324 2000 BR SCT005

Stav a předpovědi počasí z více než 4 000 letišť (zprávy METAR a TAF).

Červené a žluté tečky na mapě představují dostupné meteorologické stanice.

Když kurzor umístíte na tečku, zobrazí se název stanice.

Pak kliknutím zobrazíte stav a předpověď počasí.

Chcete-li změnit mapu, kliknutím na zelené tlačítko se znaménkem +mapu přiblížíte, kliknutím na zelené tlačítko se znaménkem – mapu oddálíte a kliknutím na zelené šipky přejdete na sousední mapy.


METAR-TAF: